sensor_id;sensor_type;location;lat;lon;timestamp;pressure;altitude;pressure_sealevel;temperature;humidity
23417;BME280;11881;42.432;25.632;2022-07-05T00:00:06;99263.69;;;22.91;70.89
23417;BME280;11881;42.432;25.632;2022-07-05T00:02:31;99268.53;;;22.76;71.34
23417;BME280;11881;42.432;25.632;2022-07-05T00:04:57;99258.78;;;22.68;71.40
23417;BME280;11881;42.432;25.632;2022-07-05T00:07:23;99265.50;;;22.59;70.94
23417;BME280;11881;42.432;25.632;2022-07-05T00:09:53;99265.75;;;22.51;72.47
23417;BME280;11881;42.432;25.632;2022-07-05T00:12:20;99258.13;;;22.66;71.71
23417;BME280;11881;42.432;25.632;2022-07-05T00:14:47;99253.91;;;22.77;70.47
23417;BME280;11881;42.432;25.632;2022-07-05T00:17:12;99254.03;;;22.57;70.84
23417;BME280;11881;42.432;25.632;2022-07-05T00:19:38;99245.19;;;22.68;69.46
23417;BME280;11881;42.432;25.632;2022-07-05T00:22:05;99251.63;;;22.74;69.71
23417;BME280;11881;42.432;25.632;2022-07-05T00:24:30;99245.75;;;22.77;68.96
23417;BME280;11881;42.432;25.632;2022-07-05T00:26:56;99248.25;;;22.78;69.56
23417;BME280;11881;42.432;25.632;2022-07-05T00:29:21;99244.97;;;22.70;69.07
23417;BME280;11881;42.432;25.632;2022-07-05T00:31:47;99243.16;;;22.57;69.54
23417;BME280;11881;42.432;25.632;2022-07-05T00:34:12;99230.84;;;22.54;69.73
23417;BME280;11881;42.432;25.632;2022-07-05T00:36:38;99226.53;;;22.40;70.65
23417;BME280;11881;42.432;25.632;2022-07-05T00:39:04;99233.16;;;22.51;70.48
23417;BME280;11881;42.432;25.632;2022-07-05T00:41:30;99235.06;;;22.44;70.26
23417;BME280;11881;42.432;25.632;2022-07-05T00:43:58;99229.25;;;22.40;69.66
23417;BME280;11881;42.432;25.632;2022-07-05T00:46:24;99221.47;;;22.50;69.16
23417;BME280;11881;42.432;25.632;2022-07-05T00:48:50;99222.59;;;22.36;69.67
23417;BME280;11881;42.432;25.632;2022-07-05T00:51:16;99223.03;;;22.33;67.30
23417;BME280;11881;42.432;25.632;2022-07-05T00:53:41;99215.69;;;22.40;65.00
23417;BME280;11881;42.432;25.632;2022-07-05T00:56:12;99210.50;;;22.32;65.37
23417;BME280;11881;42.432;25.632;2022-07-05T00:58:37;99204.22;;;22.38;64.95
23417;BME280;11881;42.432;25.632;2022-07-05T01:01:05;99217.34;;;22.41;64.58
23417;BME280;11881;42.432;25.632;2022-07-05T01:03:32;99218.63;;;22.32;63.60
23417;BME280;11881;42.432;25.632;2022-07-05T01:05:58;99209.41;;;22.40;62.45
23417;BME280;11881;42.432;25.632;2022-07-05T01:08:24;99215.88;;;22.45;62.64
23417;BME280;11881;42.432;25.632;2022-07-05T01:10:51;99210.06;;;22.35;62.52
23417;BME280;11881;42.432;25.632;2022-07-05T01:13:17;99199.06;;;22.23;62.59
23417;BME280;11881;42.432;25.632;2022-07-05T01:15:43;99208.03;;;22.24;63.13
23417;BME280;11881;42.432;25.632;2022-07-05T01:18:09;99202.53;;;22.37;62.26
23417;BME280;11881;42.432;25.632;2022-07-05T01:20:36;99198.16;;;22.36;62.38
23417;BME280;11881;42.432;25.632;2022-07-05T01:23:02;99195.22;;;22.38;62.01
23417;BME280;11881;42.432;25.632;2022-07-05T01:25:29;99189.22;;;22.67;59.93
23417;BME280;11881;42.432;25.632;2022-07-05T01:27:57;99197.84;;;22.82;58.55
23417;BME280;11881;42.432;25.632;2022-07-05T01:30:23;99194.41;;;22.69;59.67
23417;BME280;11881;42.432;25.632;2022-07-05T01:32:49;99213.84;;;22.66;59.77
23417;BME280;11881;42.432;25.632;2022-07-05T01:35:16;99205.75;;;22.59;60.29
23417;BME280;11881;42.432;25.632;2022-07-05T01:37:50;99216.06;;;22.50;60.16
23417;BME280;11881;42.432;25.632;2022-07-05T01:40:17;99215.22;;;22.43;61.00
23417;BME280;11881;42.432;25.632;2022-07-05T01:42:44;99215.41;;;22.48;61.61
23417;BME280;11881;42.432;25.632;2022-07-05T01:45:10;99219.34;;;22.21;63.83
23417;BME280;11881;42.432;25.632;2022-07-05T01:47:36;99213.91;;;22.21;64.24
23417;BME280;11881;42.432;25.632;2022-07-05T01:50:05;99221.00;;;22.09;64.99
23417;BME280;11881;42.432;25.632;2022-07-05T01:52:31;99209.09;;;22.23;65.00
23417;BME280;11881;42.432;25.632;2022-07-05T01:55:00;99213.66;;;22.29;65.13
23417;BME280;11881;42.432;25.632;2022-07-05T01:57:27;99211.56;;;22.24;66.22
23417;BME280;11881;42.432;25.632;2022-07-05T01:59:53;99219.56;;;22.13;67.42
23417;BME280;11881;42.432;25.632;2022-07-05T02:02:18;99204.34;;;22.12;67.90
23417;BME280;11881;42.432;25.632;2022-07-05T02:04:43;99205.13;;;22.19;67.60
23417;BME280;11881;42.432;25.632;2022-07-05T02:07:09;99203.72;;;22.10;68.32
23417;BME280;11881;42.432;25.632;2022-07-05T02:09:36;99198.06;;;22.04;68.62
23417;BME280;11881;42.432;25.632;2022-07-05T02:12:03;99203.47;;;22.18;67.19
23417;BME280;11881;42.432;25.632;2022-07-05T02:14:29;99209.28;;;22.28;65.96
23417;BME280;11881;42.432;25.632;2022-07-05T02:16:55;99217.03;;;22.18;67.71
23417;BME280;11881;42.432;25.632;2022-07-05T02:19:20;99218.78;;;21.92;68.36
23417;BME280;11881;42.432;25.632;2022-07-05T02:21:46;99218.56;;;21.94;68.06
23417;BME280;11881;42.432;25.632;2022-07-05T02:24:11;99230.25;;;21.94;67.59
23417;BME280;11881;42.432;25.632;2022-07-05T02:26:37;99225.03;;;21.93;66.87
23417;BME280;11881;42.432;25.632;2022-07-05T02:29:03;99224.38;;;22.11;66.61
23417;BME280;11881;42.432;25.632;2022-07-05T02:31:29;99229.13;;;22.09;67.42
23417;BME280;11881;42.432;25.632;2022-07-05T02:33:55;99229.13;;;22.09;67.86
23417;BME280;11881;42.432;25.632;2022-07-05T02:36:21;99230.88;;;21.90;69.75
23417;BME280;11881;42.432;25.632;2022-07-05T02:38:46;99234.66;;;21.82;70.55
23417;BME280;11881;42.432;25.632;2022-07-05T02:41:13;99231.56;;;21.65;70.93
23417;BME280;11881;42.432;25.632;2022-07-05T02:43:38;99243.06;;;21.47;70.55
23417;BME280;11881;42.432;25.632;2022-07-05T02:46:06;99244.72;;;21.48;68.66
23417;BME280;11881;42.432;25.632;2022-07-05T02:48:32;99231.16;;;21.55;67.72
23417;BME280;11881;42.432;25.632;2022-07-05T02:50:58;99229.09;;;21.57;67.39
23417;BME280;11881;42.432;25.632;2022-07-05T02:53:24;99227.22;;;21.44;67.37
23417;BME280;11881;42.432;25.632;2022-07-05T02:55:50;99229.94;;;21.44;67.50
23417;BME280;11881;42.432;25.632;2022-07-05T02:58:15;99234.94;;;21.47;67.54
23417;BME280;11881;42.432;25.632;2022-07-05T03:00:43;99232.03;;;21.42;68.28
23417;BME280;11881;42.432;25.632;2022-07-05T03:03:08;99227.19;;;21.51;68.36
23417;BME280;11881;42.432;25.632;2022-07-05T03:05:34;99239.28;;;21.62;68.96
23417;BME280;11881;42.432;25.632;2022-07-05T12:07:34;99019.09;;;34.60;30.86
23417;BME280;11881;42.432;25.632;2022-07-05T12:10:03;99014.53;;;34.69;30.46
23417;BME280;11881;42.432;25.632;2022-07-05T12:12:47;99012.19;;;34.76;30.47
23417;BME280;11881;42.432;25.632;2022-07-05T12:15:15;99014.84;;;34.67;30.18
23417;BME280;11881;42.432;25.632;2022-07-05T12:17:43;99021.66;;;34.37;29.80
23417;BME280;11881;42.432;25.632;2022-07-05T12:20:11;99010.47;;;33.91;30.46
23417;BME280;11881;42.432;25.632;2022-07-05T12:22:42;99020.59;;;33.34;31.94
23417;BME280;11881;42.432;25.632;2022-07-05T12:25:12;99007.16;;;33.51;31.81
23417;BME280;11881;42.432;25.632;2022-07-05T12:27:41;99015.06;;;33.34;31.73
23417;BME280;11881;42.432;25.632;2022-07-05T12:30:08;99010.59;;;33.38;32.42
23417;BME280;11881;42.432;25.632;2022-07-05T12:35:50;99006.38;;;34.07;31.58
23417;BME280;11881;42.432;25.632;2022-07-05T12:38:18;98998.28;;;34.30;31.99
23417;BME280;11881;42.432;25.632;2022-07-05T12:40:56;98999.00;;;34.22;31.38
23417;BME280;11881;42.432;25.632;2022-07-05T12:43:22;98987.41;;;34.01;31.52
23417;BME280;11881;42.432;25.632;2022-07-05T12:46:07;98990.84;;;34.11;31.21
23417;BME280;11881;42.432;25.632;2022-07-05T12:48:39;99001.53;;;33.99;32.02
23417;BME280;11881;42.432;25.632;2022-07-05T12:51:06;98990.47;;;34.18;31.28
23417;BME280;11881;42.432;25.632;2022-07-05T12:53:32;98992.34;;;34.04;32.08
23417;BME280;11881;42.432;25.632;2022-07-05T12:56:22;99002.47;;;34.46;31.86
23417;BME280;11881;42.432;25.632;2022-07-05T12:59:08;98995.84;;;34.28;32.55
23417;BME280;11881;42.432;25.632;2022-07-05T13:01:37;98985.59;;;34.29;31.94
23417;BME280;11881;42.432;25.632;2022-07-05T13:04:08;98981.75;;;34.44;32.14
23417;BME280;11881;42.432;25.632;2022-07-05T13:12:21;98984.25;;;34.07;32.18
23417;BME280;11881;42.432;25.632;2022-07-05T13:14:49;98979.00;;;34.25;32.14
23417;BME280;11881;42.432;25.632;2022-07-05T13:17:16;98976.88;;;34.22;32.42
23417;BME280;11881;42.432;25.632;2022-07-05T13:19:45;98981.75;;;34.44;33.01
23417;BME280;11881;42.432;25.632;2022-07-05T13:22:11;98973.16;;;34.26;32.46
23417;BME280;11881;42.432;25.632;2022-07-05T13:24:37;98972.34;;;34.26;32.67
23417;BME280;11881;42.432;25.632;2022-07-05T13:27:04;98971.34;;;34.22;32.22
23417;BME280;11881;42.432;25.632;2022-07-05T13:29:30;98971.56;;;34.06;32.50
23417;BME280;11881;42.432;25.632;2022-07-05T13:31:55;98966.38;;;34.19;31.88
23417;BME280;11881;42.432;25.632;2022-07-05T13:34:21;98960.50;;;34.06;31.82
23417;BME280;11881;42.432;25.632;2022-07-05T13:36:55;98956.84;;;34.11;32.08
23417;BME280;11881;42.432;25.632;2022-07-05T13:39:22;98961.63;;;34.05;32.31
23417;BME280;11881;42.432;25.632;2022-07-05T13:41:49;98963.78;;;34.08;32.70
23417;BME280;11881;42.432;25.632;2022-07-05T13:44:15;98943.91;;;34.06;32.27
23417;BME280;11881;42.432;25.632;2022-07-05T13:46:41;98945.13;;;34.00;32.38
23417;BME280;11881;42.432;25.632;2022-07-05T13:49:07;98943.63;;;33.89;32.50
23417;BME280;11881;42.432;25.632;2022-07-05T13:51:32;98940.34;;;33.49;33.09
23417;BME280;11881;42.432;25.632;2022-07-05T13:53:58;98929.91;;;33.46;33.39
23417;BME280;11881;42.432;25.632;2022-07-05T13:56:23;98927.81;;;33.33;33.75
23417;BME280;11881;42.432;25.632;2022-07-05T13:58:51;98936.44;;;33.07;33.53
23417;BME280;11881;42.432;25.632;2022-07-05T14:01:16;98927.97;;;32.99;33.50
23417;BME280;11881;42.432;25.632;2022-07-05T14:03:45;98926.19;;;32.89;34.25
23417;BME280;11881;42.432;25.632;2022-07-05T14:06:10;98915.97;;;32.90;34.87
23417;BME280;11881;42.432;25.632;2022-07-05T14:08:36;98920.06;;;32.92;35.10
23417;BME280;11881;42.432;25.632;2022-07-05T14:11:01;98917.09;;;32.89;34.92
23417;BME280;11881;42.432;25.632;2022-07-05T14:13:27;98916.47;;;32.92;34.67
23417;BME280;11881;42.432;25.632;2022-07-05T14:15:54;98912.16;;;32.56;34.81
23417;BME280;11881;42.432;25.632;2022-07-05T14:18:21;98918.91;;;32.45;35.41
23417;BME280;11881;42.432;25.632;2022-07-05T14:20:47;98923.16;;;32.62;35.24
23417;BME280;11881;42.432;25.632;2022-07-05T14:23:14;98918.19;;;32.58;35.19
23417;BME280;11881;42.432;25.632;2022-07-05T14:25:40;98917.31;;;32.39;35.13
23417;BME280;11881;42.432;25.632;2022-07-05T14:28:07;98915.53;;;32.53;35.32
23417;BME280;11881;42.432;25.632;2022-07-05T14:30:37;98920.03;;;32.68;34.79
23417;BME280;11881;42.432;25.632;2022-07-05T14:33:03;98916.81;;;32.61;34.83
23417;BME280;11881;42.432;25.632;2022-07-05T14:35:29;98921.31;;;32.52;34.90
23417;BME280;11881;42.432;25.632;2022-07-05T14:37:56;98921.03;;;32.53;35.33
23417;BME280;11881;42.432;25.632;2022-07-05T14:40:21;98908.06;;;32.54;35.44
23417;BME280;11881;42.432;25.632;2022-07-05T14:42:49;98907.16;;;32.58;34.92
23417;BME280;11881;42.432;25.632;2022-07-05T14:45:14;98913.28;;;32.55;34.84
23417;BME280;11881;42.432;25.632;2022-07-05T14:47:40;98905.34;;;32.49;35.21
23417;BME280;11881;42.432;25.632;2022-07-05T14:50:06;98904.53;;;32.48;35.14
23417;BME280;11881;42.432;25.632;2022-07-05T14:52:31;98907.06;;;32.45;35.40
23417;BME280;11881;42.432;25.632;2022-07-05T14:54:56;98902.34;;;32.45;34.82
23417;BME280;11881;42.432;25.632;2022-07-05T14:57:22;98897.13;;;32.44;35.33
23417;BME280;11881;42.432;25.632;2022-07-05T14:59:47;98899.28;;;32.47;35.48
23417;BME280;11881;42.432;25.632;2022-07-05T15:02:13;98902.19;;;32.37;35.56
23417;BME280;11881;42.432;25.632;2022-07-05T15:04:42;98902.75;;;32.28;35.63
23417;BME280;11881;42.432;25.632;2022-07-05T15:07:07;98910.25;;;32.23;36.10
23417;BME280;11881;42.432;25.632;2022-07-05T15:09:33;98909.78;;;32.16;35.77
23417;BME280;11881;42.432;25.632;2022-07-05T15:11:58;98908.13;;;32.15;35.92
23417;BME280;11881;42.432;25.632;2022-07-05T15:14:24;98903.19;;;32.12;36.08
23417;BME280;11881;42.432;25.632;2022-07-05T15:16:55;98902.66;;;32.10;36.12
23417;BME280;11881;42.432;25.632;2022-07-05T15:19:24;98902.19;;;32.02;36.55
23417;BME280;11881;42.432;25.632;2022-07-05T15:21:49;98907.09;;;32.05;36.53
23417;BME280;11881;42.432;25.632;2022-07-05T15:24:15;98910.56;;;31.87;36.90
23417;BME280;11881;42.432;25.632;2022-07-05T15:26:42;98899.53;;;31.87;37.26
23417;BME280;11881;42.432;25.632;2022-07-05T15:29:08;98897.00;;;31.96;37.09
23417;BME280;11881;42.432;25.632;2022-07-05T15:31:35;98901.94;;;31.99;37.02
23417;BME280;11881;42.432;25.632;2022-07-05T15:34:05;98900.03;;;31.94;36.91
23417;BME280;11881;42.432;25.632;2022-07-05T15:36:31;98909.25;;;31.80;37.31
23417;BME280;11881;42.432;25.632;2022-07-05T15:38:58;98885.53;;;31.84;37.29
23417;BME280;11881;42.432;25.632;2022-07-05T15:41:26;98888.78;;;31.91;37.69
23417;BME280;11881;42.432;25.632;2022-07-05T15:43:52;98887.06;;;31.95;37.55
23417;BME280;11881;42.432;25.632;2022-07-05T15:46:17;98896.22;;;31.90;37.44
23417;BME280;11881;42.432;25.632;2022-07-05T15:48:42;98902.34;;;31.77;38.07
23417;BME280;11881;42.432;25.632;2022-07-05T15:51:08;98889.72;;;31.71;38.02
23417;BME280;11881;42.432;25.632;2022-07-05T15:53:33;98889.97;;;31.80;38.14
23417;BME280;11881;42.432;25.632;2022-07-05T15:55:59;98890.97;;;31.89;38.24
23417;BME280;11881;42.432;25.632;2022-07-05T15:58:28;98905.34;;;31.86;37.91
23417;BME280;11881;42.432;25.632;2022-07-05T16:00:54;98896.94;;;31.67;38.05
23417;BME280;11881;42.432;25.632;2022-07-05T16:03:20;98897.72;;;31.72;37.79
23417;BME280;11881;42.432;25.632;2022-07-05T16:05:45;98893.34;;;31.66;38.47
23417;BME280;11881;42.432;25.632;2022-07-05T16:08:11;98888.25;;;31.49;38.81
23417;BME280;11881;42.432;25.632;2022-07-05T16:10:38;98897.03;;;31.51;39.22
23417;BME280;11881;42.432;25.632;2022-07-05T16:13:03;98897.31;;;31.50;39.32
23417;BME280;11881;42.432;25.632;2022-07-05T16:15:29;98891.53;;;31.46;39.30
23417;BME280;11881;42.432;25.632;2022-07-05T16:18:13;98895.06;;;31.57;39.04
23417;BME280;11881;42.432;25.632;2022-07-05T16:20:42;98891.97;;;31.64;39.59
23417;BME280;11881;42.432;25.632;2022-07-05T16:23:07;98890.38;;;31.58;39.41
23417;BME280;11881;42.432;25.632;2022-07-05T16:25:33;98891.53;;;31.46;39.96
23417;BME280;11881;42.432;25.632;2022-07-05T16:27:58;98889.63;;;31.47;39.98
23417;BME280;11881;42.432;25.632;2022-07-05T16:30:23;98891.22;;;31.53;39.71
23417;BME280;11881;42.432;25.632;2022-07-05T16:32:49;98881.75;;;31.25;39.91
23417;BME280;11881;42.432;25.632;2022-07-05T16:35:15;98886.72;;;31.28;40.10
23417;BME280;11881;42.432;25.632;2022-07-05T16:37:40;98897.41;;;31.35;40.65
23417;BME280;11881;42.432;25.632;2022-07-05T16:40:06;98893.63;;;31.25;40.94
23417;BME280;11881;42.432;25.632;2022-07-05T16:42:32;98895.00;;;31.18;41.66
23417;BME280;11881;42.432;25.632;2022-07-05T16:44:57;98912.09;;;31.10;41.84
23417;BME280;11881;42.432;25.632;2022-07-05T16:47:23;98909.34;;;31.10;41.77
23417;BME280;11881;42.432;25.632;2022-07-05T16:49:51;98912.38;;;31.08;42.29
23417;BME280;11881;42.432;25.632;2022-07-05T16:52:17;98918.97;;;31.07;42.36
23417;BME280;11881;42.432;25.632;2022-07-05T16:54:43;98917.94;;;30.93;42.19
23417;BME280;11881;42.432;25.632;2022-07-05T16:57:09;98909.13;;;30.96;41.96
23417;BME280;11881;42.432;25.632;2022-07-05T16:59:34;98907.47;;;30.95;42.05
23417;BME280;11881;42.432;25.632;2022-07-05T17:02:00;98914.69;;;30.81;42.68
23417;BME280;11881;42.432;25.632;2022-07-05T17:04:27;98923.78;;;30.76;42.93
23417;BME280;11881;42.432;25.632;2022-07-05T17:06:52;98928.75;;;30.69;43.29
23417;BME280;11881;42.432;25.632;2022-07-05T17:09:18;98929.00;;;30.67;43.10
23417;BME280;11881;42.432;25.632;2022-07-05T17:11:43;98942.78;;;30.62;43.41
23417;BME280;11881;42.432;25.632;2022-07-05T17:14:08;98936.16;;;30.58;43.58
23417;BME280;11881;42.432;25.632;2022-07-05T17:16:34;98932.91;;;30.36;43.92
23417;BME280;11881;42.432;25.632;2022-07-05T17:18:59;98935.09;;;30.44;43.73
23417;BME280;11881;42.432;25.632;2022-07-05T17:21:25;98925.22;;;30.33;44.19
23417;BME280;11881;42.432;25.632;2022-07-05T17:23:51;98935.94;;;30.19;44.36
23417;BME280;11881;42.432;25.632;2022-07-05T17:26:26;98938.44;;;30.15;44.94
23417;BME280;11881;42.432;25.632;2022-07-05T17:28:54;98931.50;;;30.08;45.12
23417;BME280;11881;42.432;25.632;2022-07-05T17:31:21;98935.66;;;30.05;45.07
23417;BME280;11881;42.432;25.632;2022-07-05T17:33:48;98926.56;;;29.94;46.07
23417;BME280;11881;42.432;25.632;2022-07-05T17:36:15;98936.47;;;29.95;45.71
23417;BME280;11881;42.432;25.632;2022-07-05T17:38:42;98936.72;;;29.84;46.46
23417;BME280;11881;42.432;25.632;2022-07-05T17:41:08;98933.44;;;29.77;46.18
23417;BME280;11881;42.432;25.632;2022-07-05T17:43:44;98942.75;;;29.65;46.87
23417;BME280;11881;42.432;25.632;2022-07-05T17:46:18;98940.28;;;29.59;47.02
23417;BME280;11881;42.432;25.632;2022-07-05T17:48:45;98942.47;;;29.67;47.67
23417;BME280;11881;42.432;25.632;2022-07-05T17:51:11;98944.66;;;29.65;47.51
23417;BME280;11881;42.432;25.632;2022-07-05T17:53:42;98941.66;;;29.66;47.54
23417;BME280;11881;42.432;25.632;2022-07-05T17:56:08;98944.09;;;29.53;46.93
23417;BME280;11881;42.432;25.632;2022-07-05T17:58:34;98943.78;;;29.49;47.44
23417;BME280;11881;42.432;25.632;2022-07-05T18:01:00;98937.78;;;29.62;47.04
23417;BME280;11881;42.432;25.632;2022-07-05T18:03:25;98934.47;;;29.55;47.41
23417;BME280;11881;42.432;25.632;2022-07-05T18:05:51;98947.06;;;29.46;46.92
23417;BME280;11881;42.432;25.632;2022-07-05T18:08:16;98946.47;;;29.39;47.55
23417;BME280;11881;42.432;25.632;2022-07-05T18:10:42;98950.63;;;29.41;47.77
23417;BME280;11881;42.432;25.632;2022-07-05T18:13:09;98949.75;;;29.31;48.01
23417;BME280;11881;42.432;25.632;2022-07-05T18:15:34;98952.47;;;29.26;48.16
23417;BME280;11881;42.432;25.632;2022-07-05T18:18:07;98959.91;;;29.25;48.76
23417;BME280;11881;42.432;25.632;2022-07-05T18:20:34;98960.97;;;29.19;48.71
23417;BME280;11881;42.432;25.632;2022-07-05T18:22:59;98957.31;;;29.03;49.96
23417;BME280;11881;42.432;25.632;2022-07-05T18:25:25;98970.19;;;28.98;50.24
23417;BME280;11881;42.432;25.632;2022-07-05T18:27:51;98974.50;;;28.88;50.26
23417;BME280;11881;42.432;25.632;2022-07-05T18:30:17;98975.03;;;28.85;49.95
23417;BME280;11881;42.432;25.632;2022-07-05T18:32:42;98982.69;;;28.78;50.26
23417;BME280;11881;42.432;25.632;2022-07-05T18:35:08;98978.50;;;28.66;50.87
23417;BME280;11881;42.432;25.632;2022-07-05T18:37:35;98980.91;;;28.62;50.99
23417;BME280;11881;42.432;25.632;2022-07-05T18:40:02;98987.53;;;28.66;50.51
23417;BME280;11881;42.432;25.632;2022-07-05T18:42:27;98987.97;;;28.48;50.79
23417;BME280;11881;42.432;25.632;2022-07-05T18:44:53;98987.84;;;28.32;51.61
23417;BME280;11881;42.432;25.632;2022-07-05T18:47:18;98992.09;;;28.23;52.19
23417;BME280;11881;42.432;25.632;2022-07-05T18:49:44;98987.50;;;28.29;51.80
23417;BME280;11881;42.432;25.632;2022-07-05T18:52:10;98996.53;;;28.29;51.78
23417;BME280;11881;42.432;25.632;2022-07-05T18:54:36;99001.69;;;28.21;52.26
23417;BME280;11881;42.432;25.632;2022-07-05T18:57:01;99005.03;;;28.28;52.14
23417;BME280;11881;42.432;25.632;2022-07-05T18:59:27;99007.00;;;28.32;52.20
23417;BME280;11881;42.432;25.632;2022-07-05T19:01:52;99012.63;;;28.21;52.94
23417;BME280;11881;42.432;25.632;2022-07-05T19:04:18;99017.75;;;28.12;52.92
23417;BME280;11881;42.432;25.632;2022-07-05T19:06:43;99028.03;;;28.00;53.51
23417;BME280;11881;42.432;25.632;2022-07-05T19:09:27;99024.91;;;27.86;54.51
23417;BME280;11881;42.432;25.632;2022-07-05T19:12:11;99026.44;;;27.77;54.81
23417;BME280;11881;42.432;25.632;2022-07-05T19:14:55;99029.50;;;27.80;54.99
23417;BME280;11881;42.432;25.632;2022-07-05T19:17:21;99029.19;;;27.55;55.58
23417;BME280;11881;42.432;25.632;2022-07-05T19:19:46;99023.19;;;27.58;55.98
23417;BME280;11881;42.432;25.632;2022-07-05T19:22:12;99021.41;;;27.47;56.25
23417;BME280;11881;42.432;25.632;2022-07-05T19:24:38;99013.97;;;27.42;56.54
23417;BME280;11881;42.432;25.632;2022-07-05T19:27:04;99018.66;;;27.47;56.30
23417;BME280;11881;42.432;25.632;2022-07-05T19:29:29;99020.31;;;27.48;56.28
23417;BME280;11881;42.432;25.632;2022-07-05T19:31:56;99013.34;;;27.35;56.96
23417;BME280;11881;42.432;25.632;2022-07-05T19:34:23;99028.91;;;27.35;56.94
23417;BME280;11881;42.432;25.632;2022-07-05T19:36:48;99018.38;;;27.21;57.61
23417;BME280;11881;42.432;25.632;2022-07-05T19:39:14;99021.84;;;27.17;58.00
23417;BME280;11881;42.432;25.632;2022-07-05T19:41:39;99014.22;;;27.19;57.34
23417;BME280;11881;42.432;25.632;2022-07-05T19:44:05;99018.47;;;27.10;57.85
23417;BME280;11881;42.432;25.632;2022-07-05T19:46:30;99015.56;;;26.99;58.55
23417;BME280;11881;42.432;25.632;2022-07-05T19:48:56;99021.56;;;26.96;58.65
23417;BME280;11881;42.432;25.632;2022-07-05T19:51:21;99025.59;;;26.94;58.57
23417;BME280;11881;42.432;25.632;2022-07-05T19:53:47;99023.69;;;26.94;58.85
23417;BME280;11881;42.432;25.632;2022-07-05T19:56:12;99020.66;;;26.91;59.08
23417;BME280;11881;42.432;25.632;2022-07-05T19:58:38;99016.25;;;26.90;58.65
23417;BME280;11881;42.432;25.632;2022-07-05T20:01:04;99015.69;;;26.88;58.62
23417;BME280;11881;42.432;25.632;2022-07-05T20:03:30;99013.03;;;26.93;58.44
23417;BME280;11881;42.432;25.632;2022-07-05T20:05:55;99012.69;;;26.89;58.50
23417;BME280;11881;42.432;25.632;2022-07-05T20:08:21;99011.28;;;26.87;58.78
23417;BME280;11881;42.432;25.632;2022-07-05T20:10:46;99004.19;;;26.86;58.68
23417;BME280;11881;42.432;25.632;2022-07-05T20:13:12;99020.84;;;26.67;59.73
23417;BME280;11881;42.432;25.632;2022-07-05T20:15:37;99025.66;;;26.60;60.24
23417;BME280;11881;42.432;25.632;2022-07-05T20:18:03;99020.25;;;26.48;60.58
23417;BME280;11881;42.432;25.632;2022-07-05T20:20:28;99012.91;;;26.49;60.41
23417;BME280;11881;42.432;25.632;2022-07-05T20:22:54;99015.31;;;26.45;60.87
23417;BME280;11881;42.432;25.632;2022-07-05T20:25:19;99020.09;;;26.55;60.55
23417;BME280;11881;42.432;25.632;2022-07-05T20:27:45;99021.44;;;26.52;60.87
23417;BME280;11881;42.432;25.632;2022-07-05T20:30:10;99019.53;;;26.53;60.72
23417;BME280;11881;42.432;25.632;2022-07-05T20:32:36;99015.19;;;26.40;61.43
23417;BME280;11881;42.432;25.632;2022-07-05T20:35:01;99009.66;;;26.35;61.30
23417;BME280;11881;42.432;25.632;2022-07-05T20:37:27;99011.56;;;26.35;62.12
23417;BME280;11881;42.432;25.632;2022-07-05T20:39:53;99020.00;;;26.33;62.38
23417;BME280;11881;42.432;25.632;2022-07-05T20:42:18;99006.47;;;26.26;62.95
23417;BME280;11881;42.432;25.632;2022-07-05T20:44:44;99016.81;;;26.08;64.09
23417;BME280;11881;42.432;25.632;2022-07-05T20:47:09;99022.44;;;26.01;64.24
23417;BME280;11881;42.432;25.632;2022-07-05T20:49:35;99024.03;;;26.14;63.45
23417;BME280;11881;42.432;25.632;2022-07-05T20:52:00;99023.00;;;26.03;63.73
23417;BME280;11881;42.432;25.632;2022-07-05T20:54:26;99015.41;;;26.05;63.69
23417;BME280;11881;42.432;25.632;2022-07-05T20:56:51;99011.16;;;25.97;64.25
23417;BME280;11881;42.432;25.632;2022-07-05T20:59:17;99018.81;;;26.12;63.26
23417;BME280;11881;42.432;25.632;2022-07-05T21:01:43;99017.91;;;26.07;63.20
23417;BME280;11881;42.432;25.632;2022-07-05T21:04:09;99022.16;;;25.86;64.89
23417;BME280;11881;42.432;25.632;2022-07-05T21:06:34;99021.50;;;25.95;64.14
23417;BME280;11881;42.432;25.632;2022-07-05T21:08:59;99015.69;;;26.04;63.82
23417;BME280;11881;42.432;25.632;2022-07-05T21:11:25;99014.25;;;26.01;63.62
23417;BME280;11881;42.432;25.632;2022-07-05T21:13:51;99020.38;;;26.08;63.36
23417;BME280;11881;42.432;25.632;2022-07-05T21:16:16;99016.81;;;26.08;63.13
23417;BME280;11881;42.432;25.632;2022-07-05T21:18:41;99021.91;;;26.16;62.57
23417;BME280;11881;42.432;25.632;2022-07-05T21:21:07;99022.28;;;26.08;63.24
23417;BME280;11881;42.432;25.632;2022-07-05T21:23:32;99025.16;;;26.01;63.32
23417;BME280;11881;42.432;25.632;2022-07-05T21:25:58;99032.00;;;25.87;64.15
23417;BME280;11881;42.432;25.632;2022-07-05T21:28:23;99027.56;;;25.69;64.86
23417;BME280;11881;42.432;25.632;2022-07-05T21:30:51;99029.25;;;25.58;65.10
23417;BME280;11881;42.432;25.632;2022-07-05T21:33:16;99033.31;;;25.44;65.80
23417;BME280;11881;42.432;25.632;2022-07-05T21:35:42;99024.16;;;25.50;65.50
23417;BME280;11881;42.432;25.632;2022-07-05T21:38:07;99036.50;;;25.53;65.81
23417;BME280;11881;42.432;25.632;2022-07-05T21:40:33;99032.81;;;25.59;65.27
23417;BME280;11881;42.432;25.632;2022-07-05T21:42:58;99033.22;;;25.67;64.74
23417;BME280;11881;42.432;25.632;2022-07-05T21:45:23;99033.72;;;25.64;64.94
23417;BME280;11881;42.432;25.632;2022-07-05T21:47:49;99034.56;;;25.65;65.00
23417;BME280;11881;42.432;25.632;2022-07-05T21:50:14;99027.44;;;25.76;64.45
23417;BME280;11881;42.432;25.632;2022-07-05T21:52:40;99030.50;;;25.67;65.06
23417;BME280;11881;42.432;25.632;2022-07-05T21:55:05;99019.88;;;25.94;63.24